Darlington, WI

2:56 AM CDT en Septiembre 20, 2014 (GMT -0500)
Iowa County | Change Station
CLOSE
Current Station
Aeropuerto
Location: Mineral Point,
Altura: 1168 ft
Estaciones meteorológicas cercanas

Alt 1168 ft 42.89 °N, 90.23 °W | Updated 21 minutes ago

Despejado
Despejado
64 ° F
Sensación térmica 64 ° F
N
13
Viento Variable Viento desde SSO

Hoy
Alta -- | Baja -- ° F
--% Posibilidad de precipitaciones
Ayer
Alta -- | Baja -- ° F
Precip. -- pul
6:45 AM 7:01 PM
Creciente menguante, 14% visible
Presión 29.84 pul
Visibilidad 10.0 Millas
Nubes Nubes dispersas 2200 ft
Punto de rocío 59 ° F
Humedad 83%
Precipitaciones 0.00 pul
Espesor de la nieve No disponible.
UV 0 de una escala de 12
Polen 4.50 de una escala de 12
Calidad del aire No disponible.
Flu Activity No disponible.
METAR KMRJ 200735Z AUTO 21011KT 10SM SCT022 18/15 A2984 RMK AO2

More Conditions Fewer Conditions

Presión 29.84 pul
Visibilidad 10.0 Millas
Nubes Nubes dispersas 2200 ft
Punto de rocío 59 ° F
Humedad 83%
Precipitaciones 0.00 pul
Espesor de la nieve No disponible.
UV 0 de una escala de 12
Polen 4.50 de una escala de 12
Calidad del aire No disponible.
Flu Activity No disponible.
METAR KMRJ 200735Z AUTO 21011KT 10SM SCT022 18/15 A2984 RMK AO2

More Conditions Fewer Conditions

10-Day Weather Forecast

Almanac

Astronomía

Sep. 20, 2014 Salida Puesta
Hora real 6:45 AM CDT 7:01 PM CDT
Crepúsculo civil 6:17 AM CDT 7:29 PM CDT
Crepúsculo náutico 5:44 AM CDT 8:02 PM CDT
Crepúsculo astronómico 5:10 AM CDT 8:36 PM CDT
Luna 3:21 AM CDT 5:07 PM CDT
Horas de luz 13h 12m
Horas de luz
12h 15m
Tomorrow will be 2m 52s shorter.
Creciente menguante, 14% of the Moon is Illuminated
Hoy
Creciente menguante
Sep 24
Nueva
Oct 1
Cuarto creciente
Oct 8
Luna llena
Oct 15
Cuarto menguante

Extremos de hoy

Máximos del estado Bajos del estado

Community

WunderPhotos

Upload Photos

1,754,793 ¡fotos cargadas!

WunderBlogs® & News

Nearby

Grosos de nieve

Estación Profundido Altura
No tenemos constancia de nieve nueva.

Actividad de terremotos

Ciudad Distance Mag. Tiempo y dato
No hay informes recientes de la actividad sísmica.
Magnitud mínima muestra es 2,5.

Temperaturas de aguas costeras

Lugar Temperatura
Sin partes meteorológicos de las estaciones

Estaciones meteorológicas cercanas